Terminal Aerodrome Forecast
Issued by NWS

Home | Current Version | Previous Version | Text Only | Print | Product List | Glossary On
Versions: 1 2 3 4 5 6 7 8 9 10 11 12 13 14 15 16 17 18
000
FTUS44 KLIX 230520
TAFGPT
TAF
KGPT 230520Z 2306/2406 19007KT P6SM VCTS SCT020CB BKN030 OVC050
     FM230630 32009KT P6SM VCSH OVC020
     FM231500 33012G18KT P6SM BKN015=

USA.gov is the U.S. government's official web portal to all federal, state and local government web resources and services.